sensor_id;sensor_type;location;lat;lon;timestamp;pressure;altitude;pressure_sealevel;temperature;humidity
31538;BME280;18147;51.952;6.146;2023-05-10T00:02:10;100757.63;;;14.52;100.00
31538;BME280;18147;51.952;6.146;2023-05-10T00:04:36;100750.81;;;14.48;100.00
31538;BME280;18147;51.952;6.146;2023-05-10T00:07:07;100745.91;;;14.53;100.00
31538;BME280;18147;51.952;6.146;2023-05-10T00:09:33;100749.06;;;14.58;100.00
31538;BME280;18147;51.952;6.146;2023-05-10T00:11:58;100749.81;;;14.49;100.00
31538;BME280;18147;51.952;6.146;2023-05-10T00:14:24;100747.63;;;14.54;100.00
31538;BME280;18147;51.952;6.146;2023-05-10T00:16:49;100750.28;;;14.43;100.00
31538;BME280;18147;51.952;6.146;2023-05-10T00:19:15;100750.28;;;14.54;100.00
31538;BME280;18147;51.952;6.146;2023-05-10T00:21:41;100746.50;;;14.34;100.00
31538;BME280;18147;51.952;6.146;2023-05-10T00:24:06;100750.06;;;14.46;100.00
31538;BME280;18147;51.952;6.146;2023-05-10T00:26:32;100751.88;;;14.34;100.00
31538;BME280;18147;51.952;6.146;2023-05-10T00:28:57;100749.94;;;14.47;100.00
31538;BME280;18147;51.952;6.146;2023-05-10T00:31:23;100749.56;;;14.52;100.00
31538;BME280;18147;51.952;6.146;2023-05-10T00:33:49;100748.22;;;14.46;100.00
31538;BME280;18147;51.952;6.146;2023-05-10T00:36:15;100741.38;;;14.42;100.00
31538;BME280;18147;51.952;6.146;2023-05-10T00:38:40;100745.16;;;14.40;100.00
31538;BME280;18147;51.952;6.146;2023-05-10T00:41:06;100745.31;;;14.49;100.00
31538;BME280;18147;51.952;6.146;2023-05-10T00:43:37;100738.22;;;14.48;100.00
31538;BME280;18147;51.952;6.146;2023-05-10T00:46:04;100740.28;;;14.45;100.00
31538;BME280;18147;51.952;6.146;2023-05-10T00:48:31;100744.94;;;14.54;100.00
31538;BME280;18147;51.952;6.146;2023-05-10T00:50:57;100748.09;;;14.37;100.00
31538;BME280;18147;51.952;6.146;2023-05-10T00:53:26;100745.53;;;14.35;100.00
31538;BME280;18147;51.952;6.146;2023-05-10T00:55:52;100739.09;;;14.49;100.00
31538;BME280;18147;51.952;6.146;2023-05-10T00:58:18;100751.50;;;14.39;100.00
31538;BME280;18147;51.952;6.146;2023-05-10T01:00:46;100754.19;;;14.39;100.00
31538;BME280;18147;51.952;6.146;2023-05-10T01:03:11;100747.97;;;14.49;100.00
31538;BME280;18147;51.952;6.146;2023-05-10T01:05:37;100752.25;;;14.52;100.00
31538;BME280;18147;51.952;6.146;2023-05-10T01:08:03;100743.69;;;14.47;100.00
31538;BME280;18147;51.952;6.146;2023-05-10T01:10:31;100736.03;;;14.54;100.00
31538;BME280;18147;51.952;6.146;2023-05-10T01:12:59;100736.97;;;14.64;100.00
31538;BME280;18147;51.952;6.146;2023-05-10T01:15:25;100731.09;;;14.70;100.00
31538;BME280;18147;51.952;6.146;2023-05-10T01:17:51;100731.56;;;14.75;100.00
31538;BME280;18147;51.952;6.146;2023-05-10T01:20:17;100733.91;;;14.68;100.00
31538;BME280;18147;51.952;6.146;2023-05-10T01:31:18;100729.75;;;14.75;100.00
31538;BME280;18147;51.952;6.146;2023-05-10T01:33:54;100737.34;;;14.59;100.00
31538;BME280;18147;51.952;6.146;2023-05-10T01:36:43;100742.09;;;14.67;100.00
31538;BME280;18147;51.952;6.146;2023-05-10T01:41:54;100740.03;;;14.59;100.00
31538;BME280;18147;51.952;6.146;2023-05-10T01:47:07;100742.72;;;14.59;100.00
31538;BME280;18147;51.952;6.146;2023-05-10T01:49:40;100745.16;;;14.62;100.00
31538;BME280;18147;51.952;6.146;2023-05-10T01:52:10;100743.22;;;14.53;100.00
31538;BME280;18147;51.952;6.146;2023-05-10T01:54:43;100743.59;;;14.48;100.00
31538;BME280;18147;51.952;6.146;2023-05-10T01:57:10;100745.63;;;14.45;100.00
31538;BME280;18147;51.952;6.146;2023-05-10T01:59:40;100748.84;;;14.61;100.00
31538;BME280;18147;51.952;6.146;2023-05-10T02:02:10;100746.25;;;14.60;100.00
31538;BME280;18147;51.952;6.146;2023-05-10T02:04:38;100747.00;;;14.62;100.00
31538;BME280;18147;51.952;6.146;2023-05-10T02:07:07;100751.63;;;14.60;100.00
31538;BME280;18147;51.952;6.146;2023-05-10T02:09:36;100751.63;;;14.60;100.00
31538;BME280;18147;51.952;6.146;2023-05-10T02:12:05;100742.09;;;14.44;100.00
31538;BME280;18147;51.952;6.146;2023-05-10T02:14:35;100749.69;;;14.62;100.00
31538;BME280;18147;51.952;6.146;2023-05-10T02:17:05;100744.94;;;14.54;100.00
31538;BME280;18147;51.952;6.146;2023-05-10T02:19:36;100745.28;;;14.61;100.00
31538;BME280;18147;51.952;6.146;2023-05-10T02:22:03;100750.53;;;14.29;100.00
31538;BME280;18147;51.952;6.146;2023-05-10T02:24:33;100748.59;;;14.42;100.00
31538;BME280;18147;51.952;6.146;2023-05-10T02:27:02;100758.72;;;14.38;100.00
31538;BME280;18147;51.952;6.146;2023-05-10T02:29:29;100764.41;;;14.45;100.00
31538;BME280;18147;51.952;6.146;2023-05-10T02:31:56;100758.00;;;14.47;100.00
31538;BME280;18147;51.952;6.146;2023-05-10T02:34:23;100767.50;;;14.52;100.00
31538;BME280;18147;51.952;6.146;2023-05-10T02:36:51;100766.75;;;14.38;100.00
31538;BME280;18147;51.952;6.146;2023-05-10T02:39:18;100773.09;;;14.37;100.00
31538;BME280;18147;51.952;6.146;2023-05-10T02:41:46;100762.72;;;14.44;100.00
31538;BME280;18147;51.952;6.146;2023-05-10T02:44:14;100772.38;;;14.46;100.00
31538;BME280;18147;51.952;6.146;2023-05-10T02:46:40;100764.47;;;14.56;100.00
31538;BME280;18147;51.952;6.146;2023-05-10T02:49:06;100763.09;;;14.50;100.00
31538;BME280;18147;51.952;6.146;2023-05-10T02:51:35;100773.72;;;14.41;100.00
31538;BME280;18147;51.952;6.146;2023-05-10T02:54:09;100765.69;;;14.52;100.00
31538;BME280;18147;51.952;6.146;2023-05-10T02:56:36;100759.06;;;14.45;100.00
31538;BME280;18147;51.952;6.146;2023-05-10T02:59:06;100760.19;;;14.31;100.00
31538;BME280;18147;51.952;6.146;2023-05-10T03:01:32;100768.84;;;14.23;100.00
31538;BME280;18147;51.952;6.146;2023-05-10T03:03:58;100774.44;;;14.32;100.00
31538;BME280;18147;51.952;6.146;2023-05-10T03:06:23;100770.81;;;14.21;100.00
31538;BME280;18147;51.952;6.146;2023-05-10T03:08:49;100758.81;;;14.25;100.00
31538;BME280;18147;51.952;6.146;2023-05-10T03:11:47;100766.66;;;14.17;100.00
31538;BME280;18147;51.952;6.146;2023-05-10T03:14:25;100768.25;;;14.31;100.00
31538;BME280;18147;51.952;6.146;2023-05-10T03:17:15;100775.41;;;14.19;100.00
31538;BME280;18147;51.952;6.146;2023-05-10T03:22:25;100776.53;;;14.28;100.00
31538;BME280;18147;51.952;6.146;2023-05-10T03:24:53;100782.38;;;14.22;100.00
31538;BME280;18147;51.952;6.146;2023-05-10T03:27:22;100785.06;;;14.22;100.00
31538;BME280;18147;51.952;6.146;2023-05-10T03:29:50;100784.31;;;14.09;100.00
31538;BME280;18147;51.952;6.146;2023-05-10T03:32:19;100789.06;;;14.05;100.00
31538;BME280;18147;51.952;6.146;2023-05-10T03:34:45;100795.91;;;14.32;100.00
31538;BME280;18147;51.952;6.146;2023-05-10T03:37:11;100786.03;;;14.21;100.00
31538;BME280;18147;51.952;6.146;2023-05-10T03:39:36;100797.97;;;14.28;100.00
31538;BME280;18147;51.952;6.146;2023-05-10T03:42:05;100792.34;;;14.20;100.00
31538;BME280;18147;51.952;6.146;2023-05-10T03:44:31;100794.41;;;14.05;100.00
31538;BME280;18147;51.952;6.146;2023-05-10T03:46:58;100794.41;;;14.05;100.00
31538;BME280;18147;51.952;6.146;2023-05-10T03:49:25;100794.44;;;14.16;100.00
31538;BME280;18147;51.952;6.146;2023-05-10T03:51:50;100793.69;;;14.03;100.00
31538;BME280;18147;51.952;6.146;2023-05-10T03:54:20;100798.34;;;14.12;100.00
31538;BME280;18147;51.952;6.146;2023-05-10T03:56:45;100798.09;;;14.04;100.00
31538;BME280;18147;51.952;6.146;2023-05-10T03:59:14;100807.34;;;14.00;100.00
31538;BME280;18147;51.952;6.146;2023-05-10T04:01:40;100810.00;;;14.00;100.00
31538;BME280;18147;51.952;6.146;2023-05-10T04:04:06;100805.16;;;14.05;100.00
31538;BME280;18147;51.952;6.146;2023-05-10T04:06:33;100806.97;;;13.93;100.00
31538;BME280;18147;51.952;6.146;2023-05-10T04:08:58;100811.59;;;13.91;100.00
31538;BME280;18147;51.952;6.146;2023-05-10T04:11:25;100814.66;;;13.87;100.00
31538;BME280;18147;51.952;6.146;2023-05-10T04:13:51;100817.53;;;13.72;100.00
31538;BME280;18147;51.952;6.146;2023-05-10T04:16:17;100819.75;;;13.90;100.00
31538;BME280;18147;51.952;6.146;2023-05-10T04:18:43;100811.53;;;13.69;100.00
31538;BME280;18147;51.952;6.146;2023-05-10T04:21:12;100816.47;;;13.86;100.00
31538;BME280;18147;51.952;6.146;2023-05-10T04:23:39;100812.56;;;13.90;100.00
31538;BME280;18147;51.952;6.146;2023-05-10T04:26:05;100815.94;;;13.70;100.00
31538;BME280;18147;51.952;6.146;2023-05-10T04:28:32;100819.50;;;13.82;100.00
31538;BME280;18147;51.952;6.146;2023-05-10T04:31:06;100820.09;;;13.74;100.00
31538;BME280;18147;51.952;6.146;2023-05-10T04:33:32;100824.13;;;13.80;100.00
31538;BME280;18147;51.952;6.146;2023-05-10T04:35:58;100829.03;;;13.86;100.00
31538;BME280;18147;51.952;6.146;2023-05-10T04:38:24;100816.19;;;13.78;100.00
31538;BME280;18147;51.952;6.146;2023-05-10T04:40:49;100813.03;;;13.84;100.00
31538;BME280;18147;51.952;6.146;2023-05-10T04:43:15;100814.88;;;13.84;100.00
31538;BME280;18147;51.952;6.146;2023-05-10T04:45:41;100825.59;;;13.95;100.00
31538;BME280;18147;51.952;6.146;2023-05-10T04:48:06;100832.09;;;14.04;100.00
31538;BME280;18147;51.952;6.146;2023-05-10T04:50:32;100823.56;;;14.10;100.00
31538;BME280;18147;51.952;6.146;2023-05-10T04:52:58;100825.03;;;14.14;100.00
31538;BME280;18147;51.952;6.146;2023-05-10T04:55:23;100830.50;;;14.01;100.00
31538;BME280;18147;51.952;6.146;2023-05-10T04:57:49;100824.53;;;14.09;100.00
31538;BME280;18147;51.952;6.146;2023-05-10T05:00:15;100826.88;;;14.24;100.00
31538;BME280;18147;51.952;6.146;2023-05-10T05:02:44;100825.66;;;14.17;100.00
31538;BME280;18147;51.952;6.146;2023-05-10T05:05:13;100832.84;;;14.17;100.00
31538;BME280;18147;51.952;6.146;2023-05-10T05:07:39;100831.28;;;14.37;100.00
31538;BME280;18147;51.952;6.146;2023-05-10T05:10:08;100832.34;;;14.23;100.00
31538;BME280;18147;51.952;6.146;2023-05-10T05:12:35;100835.13;;;14.10;100.00
31538;BME280;18147;51.952;6.146;2023-05-10T05:15:01;100840.25;;;14.02;100.00
31538;BME280;18147;51.952;6.146;2023-05-10T05:17:31;100841.03;;;14.27;100.00
31538;BME280;18147;51.952;6.146;2023-05-10T05:20:01;100835.44;;;14.41;100.00
31538;BME280;18147;51.952;6.146;2023-05-10T05:22:31;100830.66;;;14.44;100.00
31538;BME280;18147;51.952;6.146;2023-05-10T05:24:57;100838.69;;;14.44;100.00
31538;BME280;18147;51.952;6.146;2023-05-10T05:27:24;100838.84;;;14.54;100.00
31538;BME280;18147;51.952;6.146;2023-05-10T05:29:54;100837.28;;;14.52;100.00
31538;BME280;18147;51.952;6.146;2023-05-10T05:32:20;100834.94;;;14.58;100.00
31538;BME280;18147;51.952;6.146;2023-05-10T05:34:45;100831.91;;;14.63;100.00
31538;BME280;18147;51.952;6.146;2023-05-10T05:37:15;100837.88;;;14.66;100.00
31538;BME280;18147;51.952;6.146;2023-05-10T05:39:42;100837.97;;;14.65;100.00
31538;BME280;18147;51.952;6.146;2023-05-10T05:42:09;100844.84;;;14.58;100.00
31538;BME280;18147;51.952;6.146;2023-05-10T05:44:35;100844.97;;;14.56;100.00
31538;BME280;18147;51.952;6.146;2023-05-10T05:47:02;100838.47;;;14.59;100.00
31538;BME280;18147;51.952;6.146;2023-05-10T05:49:28;100848.72;;;14.54;100.00
31538;BME280;18147;51.952;6.146;2023-05-10T05:51:54;100849.06;;;14.38;100.00
31538;BME280;18147;51.952;6.146;2023-05-10T05:54:19;100852.75;;;14.48;100.00
31538;BME280;18147;51.952;6.146;2023-05-10T05:56:45;100853.72;;;14.47;100.00
31538;BME280;18147;51.952;6.146;2023-05-10T05:59:11;100849.47;;;14.67;100.00
31538;BME280;18147;51.952;6.146;2023-05-10T06:01:37;100848.88;;;14.52;100.00
31538;BME280;18147;51.952;6.146;2023-05-10T06:04:02;100848.72;;;14.54;100.00
31538;BME280;18147;51.952;6.146;2023-05-10T06:06:28;100852.25;;;14.54;100.00
31538;BME280;18147;51.952;6.146;2023-05-10T06:08:54;100848.97;;;14.50;100.00
31538;BME280;18147;51.952;6.146;2023-05-10T06:11:19;100852.75;;;14.48;100.00
31538;BME280;18147;51.952;6.146;2023-05-10T06:13:47;100857.41;;;14.57;100.00
31538;BME280;18147;51.952;6.146;2023-05-10T06:16:12;100858.09;;;14.70;100.00
31538;BME280;18147;51.952;6.146;2023-05-10T06:18:39;100859.56;;;14.74;100.00
31538;BME280;18147;51.952;6.146;2023-05-10T06:21:05;100855.44;;;14.82;100.00
31538;BME280;18147;51.952;6.146;2023-05-10T06:23:32;100860.03;;;14.91;100.00
31538;BME280;18147;51.952;6.146;2023-05-10T06:25:58;100862.25;;;14.97;100.00
31538;BME280;18147;51.952;6.146;2023-05-10T06:28:23;100854.00;;;15.10;100.00
31538;BME280;18147;51.952;6.146;2023-05-10T06:30:50;100868.09;;;15.02;100.00
31538;BME280;18147;51.952;6.146;2023-05-10T06:33:15;100867.94;;;15.03;100.00
31538;BME280;18147;51.952;6.146;2023-05-10T06:35:41;100862.69;;;15.13;100.00
31538;BME280;18147;51.952;6.146;2023-05-10T06:38:06;100877.22;;;14.99;100.00
31538;BME280;18147;51.952;6.146;2023-05-10T06:40:32;100875.66;;;14.97;100.00
31538;BME280;18147;51.952;6.146;2023-05-10T06:42:58;100876.63;;;14.96;100.00
31538;BME280;18147;51.952;6.146;2023-05-10T06:45:23;100878.19;;;15.10;100.00
31538;BME280;18147;51.952;6.146;2023-05-10T06:47:49;100883.31;;;15.13;100.00
31538;BME280;18147;51.952;6.146;2023-05-10T06:50:14;100877.88;;;15.35;100.00
31538;BME280;18147;51.952;6.146;2023-05-10T06:52:40;100881.13;;;15.18;100.00
31538;BME280;18147;51.952;6.146;2023-05-10T06:55:06;100879.66;;;15.14;100.00
31538;BME280;18147;51.952;6.146;2023-05-10T06:57:32;100877.06;;;15.23;100.00
31538;BME280;18147;51.952;6.146;2023-05-10T06:59:58;100875.69;;;15.29;100.00
31538;BME280;18147;51.952;6.146;2023-05-10T07:02:24;100869.72;;;15.25;100.00
31538;BME280;18147;51.952;6.146;2023-05-10T07:04:53;100886.22;;;15.21;100.00
31538;BME280;18147;51.952;6.146;2023-05-10T07:07:19;100886.53;;;15.07;100.00
31538;BME280;18147;51.952;6.146;2023-05-10T07:09:44;100894.69;;;15.16;100.00
31538;BME280;18147;51.952;6.146;2023-05-10T07:12:10;100890.56;;;15.01;100.00
31538;BME280;18147;51.952;6.146;2023-05-10T07:14:36;100890.94;;;14.96;100.00
31538;BME280;18147;51.952;6.146;2023-05-10T07:17:02;100896.78;;;14.90;100.00
31538;BME280;18147;51.952;6.146;2023-05-10T07:19:27;100911.03;;;14.91;100.00
31538;BME280;18147;51.952;6.146;2023-05-10T07:21:54;100907.91;;;14.97;100.00
31538;BME280;18147;51.952;6.146;2023-05-10T07:24:20;100911.78;;;14.93;100.00
31538;BME280;18147;51.952;6.146;2023-05-10T07:26:46;100915.09;;;14.74;100.00
31538;BME280;18147;51.952;6.146;2023-05-10T07:29:11;100918.75;;;14.84;100.00
31538;BME280;18147;51.952;6.146;2023-05-10T07:31:37;100915.09;;;14.85;100.00
31538;BME280;18147;51.952;6.146;2023-05-10T07:34:03;100918.41;;;14.77;100.00
31538;BME280;18147;51.952;6.146;2023-05-10T07:36:28;100922.53;;;14.70;100.00
31538;BME280;18147;51.952;6.146;2023-05-10T07:38:54;100921.53;;;14.60;100.00
31538;BME280;18147;51.952;6.146;2023-05-10T07:41:19;100921.81;;;14.57;100.00
31538;BME280;18147;51.952;6.146;2023-05-10T07:43:46;100924.34;;;14.70;100.00
31538;BME280;18147;51.952;6.146;2023-05-10T07:46:11;100921.81;;;14.57;100.00
31538;BME280;18147;51.952;6.146;2023-05-10T07:48:37;100936.56;;;14.74;100.00
31538;BME280;18147;51.952;6.146;2023-05-10T07:51:03;100928.88;;;14.69;100.00
31538;BME280;18147;51.952;6.146;2023-05-10T07:53:30;100929.72;;;14.70;100.00
31538;BME280;18147;51.952;6.146;2023-05-10T07:55:58;100934.59;;;15.10;100.00
31538;BME280;18147;51.952;6.146;2023-05-10T07:58:24;100934.69;;;15.42;100.00
31538;BME280;18147;51.952;6.146;2023-05-10T08:00:50;100926.94;;;15.48;100.00
31538;BME280;18147;51.952;6.146;2023-05-10T08:03:16;100935.91;;;15.38;100.00
31538;BME280;18147;51.952;6.146;2023-05-10T08:05:41;100939.56;;;15.25;100.00
31538;BME280;18147;51.952;6.146;2023-05-10T08:08:07;100929.84;;;15.68;100.00
31538;BME280;18147;51.952;6.146;2023-05-10T08:10:32;100925.47;;;15.67;100.00
31538;BME280;18147;51.952;6.146;2023-05-10T08:12:58;100930.72;;;15.57;100.00
31538;BME280;18147;51.952;6.146;2023-05-10T08:15:24;100932.41;;;15.69;100.00
31538;BME280;18147;51.952;6.146;2023-05-10T08:17:53;100936.56;;;15.73;100.00
31538;BME280;18147;51.952;6.146;2023-05-10T08:20:19;100935.59;;;15.95;100.00
31538;BME280;18147;51.952;6.146;2023-05-10T08:22:46;100926.03;;;16.02;100.00
31538;BME280;18147;51.952;6.146;2023-05-10T08:25:11;100933.44;;;16.10;100.00
31538;BME280;18147;51.952;6.146;2023-05-10T08:27:37;100931.41;;;16.23;100.00
31538;BME280;18147;51.952;6.146;2023-05-10T08:30:03;100936.19;;;16.41;100.00
31538;BME280;18147;51.952;6.146;2023-05-10T08:32:28;100938.09;;;16.50;100.00
31538;BME280;18147;51.952;6.146;2023-05-10T08:34:54;100938.81;;;16.73;100.00
31538;BME280;18147;51.952;6.146;2023-05-10T08:37:22;100938.19;;;16.69;100.00
31538;BME280;18147;51.952;6.146;2023-05-10T08:39:48;100939.75;;;16.93;100.00
31538;BME280;18147;51.952;6.146;2023-05-10T08:42:16;100938.69;;;16.74;100.00
31538;BME280;18147;51.952;6.146;2023-05-10T08:44:45;100936.63;;;17.38;100.00
31538;BME280;18147;51.952;6.146;2023-05-10T08:47:15;100944.31;;;17.71;100.00
31538;BME280;18147;51.952;6.146;2023-05-10T08:49:43;100950.69;;;17.60;100.00
31538;BME280;18147;51.952;6.146;2023-05-10T08:52:11;100951.28;;;17.64;100.00
31538;BME280;18147;51.952;6.146;2023-05-10T08:54:39;100949.75;;;17.81;100.00
31538;BME280;18147;51.952;6.146;2023-05-10T08:57:05;100955.31;;;18.18;100.00
31538;BME280;18147;51.952;6.146;2023-05-10T08:59:32;100947.91;;;18.67;100.00
31538;BME280;18147;51.952;6.146;2023-05-10T09:01:58;100950.75;;;19.12;100.00
31538;BME280;18147;51.952;6.146;2023-05-10T09:04:25;100952.91;;;19.36;100.00
31538;BME280;18147;51.952;6.146;2023-05-10T09:06:51;100950.06;;;19.10;100.00
31538;BME280;18147;51.952;6.146;2023-05-10T09:09:18;100948.53;;;18.71;100.00
31538;BME280;18147;51.952;6.146;2023-05-10T09:11:44;100956.28;;;18.17;100.00
31538;BME280;18147;51.952;6.146;2023-05-10T09:14:10;100962.06;;;17.54;100.00
31538;BME280;18147;51.952;6.146;2023-05-10T09:16:38;100967.50;;;17.24;100.00
31538;BME280;18147;51.952;6.146;2023-05-10T09:19:05;100972.72;;;17.16;100.00
31538;BME280;18147;51.952;6.146;2023-05-10T09:21:34;100973.72;;;17.15;100.00
31538;BME280;18147;51.952;6.146;2023-05-10T09:24:08;100982.56;;;17.36;100.00
31538;BME280;18147;51.952;6.146;2023-05-10T09:26:46;100984.81;;;17.31;100.00
31538;BME280;18147;51.952;6.146;2023-05-10T09:29:13;100983.91;;;16.60;100.00
31538;BME280;18147;51.952;6.146;2023-05-10T09:34:16;100993.75;;;16.91;100.00
31538;BME280;18147;51.952;6.146;2023-05-10T09:36:57;100996.34;;;17.33;100.00
31538;BME280;18147;51.952;6.146;2023-05-10T09:39:33;101002.44;;;17.95;100.00
31538;BME280;18147;51.952;6.146;2023-05-10T09:42:01;100999.38;;;17.49;100.00
31538;BME280;18147;51.952;6.146;2023-05-10T09:44:29;101008.38;;;17.29;100.00
31538;BME280;18147;51.952;6.146;2023-05-10T09:46:55;101003.41;;;17.24;100.00
31538;BME280;18147;51.952;6.146;2023-05-10T09:49:21;101000.00;;;17.72;100.00
31538;BME280;18147;51.952;6.146;2023-05-10T09:51:47;100998.59;;;18.17;100.00
31538;BME280;18147;51.952;6.146;2023-05-10T09:54:24;100997.31;;;18.69;100.00
31538;BME280;18147;51.952;6.146;2023-05-10T09:56:50;101002.25;;;18.83;100.00
31538;BME280;18147;51.952;6.146;2023-05-10T09:59:15;100988.56;;;18.95;99.15
31538;BME280;18147;51.952;6.146;2023-05-10T10:01:49;101003.47;;;18.99;100.00
31538;BME280;18147;51.952;6.146;2023-05-10T10:04:15;101005.38;;;19.16;99.64
31538;BME280;18147;51.952;6.146;2023-05-10T10:06:41;101010.63;;;19.18;98.33
31538;BME280;18147;51.952;6.146;2023-05-10T10:09:08;101008.06;;;19.26;97.15
31538;BME280;18147;51.952;6.146;2023-05-10T10:11:37;101002.31;;;19.66;97.66
31538;BME280;18147;51.952;6.146;2023-05-10T10:14:04;101006.03;;;19.83;93.51
31538;BME280;18147;51.952;6.146;2023-05-10T10:16:32;101005.97;;;19.92;94.31
31538;BME280;18147;51.952;6.146;2023-05-10T10:18:58;101003.78;;;20.32;91.56
31538;BME280;18147;51.952;6.146;2023-05-10T10:21:24;101007.75;;;20.55;92.08
31538;BME280;18147;51.952;6.146;2023-05-10T10:23:49;101009.94;;;21.04;86.03
31538;BME280;18147;51.952;6.146;2023-05-10T10:26:17;101009.06;;;20.77;86.87
31538;BME280;18147;51.952;6.146;2023-05-10T10:29:12;101008.91;;;20.53;85.72
31538;BME280;18147;51.952;6.146;2023-05-10T10:34:28;101008.91;;;19.81;87.37
31538;BME280;18147;51.952;6.146;2023-05-10T10:36:56;101016.78;;;19.75;89.52
31538;BME280;18147;51.952;6.146;2023-05-10T10:39:23;101007.22;;;20.34;83.59
31538;BME280;18147;51.952;6.146;2023-05-10T10:41:55;101012.06;;;20.66;87.81
31538;BME280;18147;51.952;6.146;2023-05-10T10:44:36;101009.28;;;20.22;81.95
31538;BME280;18147;51.952;6.146;2023-05-10T10:55:16;101017.25;;;19.70;82.61
31538;BME280;18147;51.952;6.146;2023-05-10T10:57:52;101019.78;;;19.72;82.37
31538;BME280;18147;51.952;6.146;2023-05-10T11:02:49;101012.66;;;19.15;84.60
31538;BME280;18147;51.952;6.146;2023-05-10T11:08:07;101014.72;;;20.04;79.14
31538;BME280;18147;51.952;6.146;2023-05-10T11:10:33;101017.03;;;19.81;85.20
31538;BME280;18147;51.952;6.146;2023-05-10T11:13:07;101026.84;;;19.55;83.00
31538;BME280;18147;51.952;6.146;2023-05-10T11:15:38;101029.81;;;20.25;86.48
31538;BME280;18147;51.952;6.146;2023-05-10T11:18:23;101025.22;;;20.07;83.38
31538;BME280;18147;51.952;6.146;2023-05-10T11:20:56;101034.66;;;19.85;83.63
31538;BME280;18147;51.952;6.146;2023-05-10T11:23:22;101034.69;;;20.03;84.98
31538;BME280;18147;51.952;6.146;2023-05-10T11:25:49;101033.19;;;19.73;84.40
31538;BME280;18147;51.952;6.146;2023-05-10T11:28:21;101030.72;;;19.80;82.15
31538;BME280;18147;51.952;6.146;2023-05-10T11:30:46;101032.13;;;19.84;80.67
31538;BME280;18147;51.952;6.146;2023-05-10T11:33:19;101037.13;;;19.97;78.35
31538;BME280;18147;51.952;6.146;2023-05-10T11:35:45;101039.25;;;20.21;81.88
31538;BME280;18147;51.952;6.146;2023-05-10T11:38:12;101040.63;;;20.42;78.45
31538;BME280;18147;51.952;6.146;2023-05-10T11:40:39;101044.09;;;20.71;77.54
31538;BME280;18147;51.952;6.146;2023-05-10T11:43:05;101042.81;;;20.83;75.82
31538;BME280;18147;51.952;6.146;2023-05-10T11:45:35;101033.16;;;20.54;72.44
31538;BME280;18147;51.952;6.146;2023-05-10T11:48:01;101035.16;;;20.78;75.62
31538;BME280;18147;51.952;6.146;2023-05-10T11:50:28;101040.94;;;20.57;73.82
31538;BME280;18147;51.952;6.146;2023-05-10T11:52:55;101044.34;;;20.41;76.20
31538;BME280;18147;51.952;6.146;2023-05-10T11:55:21;101038.03;;;21.29;75.42
31538;BME280;18147;51.952;6.146;2023-05-10T11:57:47;101035.13;;;20.70;72.12
31538;BME280;18147;51.952;6.146;2023-05-10T12:00:15;101032.84;;;21.09;74.38
31538;BME280;18147;51.952;6.146;2023-05-10T12:02:41;101034.47;;;21.02;74.53
31538;BME280;18147;51.952;6.146;2023-05-10T12:05:08;101039.03;;;21.54;70.16
31538;BME280;18147;51.952;6.146;2023-05-10T12:07:37;101038.53;;;21.66;71.56
31538;BME280;18147;51.952;6.146;2023-05-10T12:10:07;101040.13;;;21.35;71.29
31538;BME280;18147;51.952;6.146;2023-05-10T12:12:39;101045.84;;;21.66;71.10
31538;BME280;18147;51.952;6.146;2023-05-10T12:15:20;101041.34;;;21.40;69.94
31538;BME280;18147;51.952;6.146;2023-05-10T12:17:46;101047.47;;;21.51;69.96
31538;BME280;18147;51.952;6.146;2023-05-10T12:20:20;101042.03;;;22.01;68.64
31538;BME280;18147;51.952;6.146;2023-05-10T12:22:50;101044.28;;;22.14;69.81
31538;BME280;18147;51.952;6.146;2023-05-10T12:25:18;101052.00;;;21.42;68.45
31538;BME280;18147;51.952;6.146;2023-05-10T12:27:52;101048.81;;;21.20;71.20
31538;BME280;18147;51.952;6.146;2023-05-10T12:30:28;101052.56;;;20.93;71.93
31538;BME280;18147;51.952;6.146;2023-05-10T12:33:08;101060.56;;;21.03;72.07
31538;BME280;18147;51.952;6.146;2023-05-10T12:35:48;101054.50;;;20.83;70.28
31538;BME280;18147;51.952;6.146;2023-05-10T12:38:36;101054.03;;;20.88;71.67
31538;BME280;18147;51.952;6.146;2023-05-10T12:41:12;101056.25;;;20.66;71.38
31538;BME280;18147;51.952;6.146;2023-05-10T12:43:41;101054.25;;;20.68;70.97
31538;BME280;18147;51.952;6.146;2023-05-10T12:46:14;101058.66;;;20.69;70.96
31538;BME280;18147;51.952;6.146;2023-05-10T12:48:42;101053.09;;;20.97;71.40
31538;BME280;18147;51.952;6.146;2023-05-10T12:51:08;101062.34;;;21.12;72.71
31538;BME280;18147;51.952;6.146;2023-05-10T12:53:41;101065.53;;;21.08;70.97
31538;BME280;18147;51.952;6.146;2023-05-10T12:56:07;101071.19;;;21.40;72.73
31538;BME280;18147;51.952;6.146;2023-05-10T12:58:34;101066.00;;;21.29;72.49
31538;BME280;18147;51.952;6.146;2023-05-10T13:01:00;101074.38;;;21.10;73.36
31538;BME280;18147;51.952;6.146;2023-05-10T13:03:26;101066.44;;;21.16;70.70
31538;BME280;18147;51.952;6.146;2023-05-10T13:05:52;101075.53;;;21.67;67.42
31538;BME280;18147;51.952;6.146;2023-05-10T13:08:18;101066.41;;;21.34;66.03
31538;BME280;18147;51.952;6.146;2023-05-10T13:10:43;101069.97;;;21.77;66.30
31538;BME280;18147;51.952;6.146;2023-05-10T13:13:10;101068.44;;;21.75;69.39
31538;BME280;18147;51.952;6.146;2023-05-10T13:15:36;101070.16;;;21.41;67.68
31538;BME280;18147;51.952;6.146;2023-05-10T13:18:02;101073.38;;;21.79;65.85
31538;BME280;18147;51.952;6.146;2023-05-10T13:20:29;101072.97;;;21.66;68.06
31538;BME280;18147;51.952;6.146;2023-05-10T13:22:55;101073.38;;;21.87;68.07